Mentor, Ohio
Current Conditions -  °F | °C
As of 9:45 AM on Tuesday 21 Oct 2014 (Local Time) from KCGF Reporting Station
Overcast Overcast  
Wind Chill: 52°   Ceiling: 1000
Heat Index: 52°   Visibility: 7mi
Dew Point: 50°   Wind: 12mph
Humidity: 94%   Direction: 340°NNW
Pressure: 29.91"   Gusts: NA
Location:  41.7°N, 81.34°W
Report Text: KCGF 211345Z 34010KT 7SM OVC010 11/10 A2991
Loading
Personal Weather Stations






























Interactive Weather Map
Tropical Storm Tracking
New forecast layout! Learn more

10-Day Weather Forecast

Advertisements
Track Severe Weather on mobile